Time;durP1;ratioP1;P1;durP2;ratioP2;P2;SDS_P1;SDS_P2;PMS_P1;PMS_P2;Temp;Humidity;BMP_temperature;BMP_pressure;BME280_temperature;BME280_humidity;BME280_pressure;Samples;Min_cycle;Max_cycle;Signal;HPM_P1;HPM_P2
2024/04/12 00:01:01;;;;;;;4.50;2.17;;;;;;;7.72;100.00;94514.47;2095439;28;20137;-83
2024/04/12 00:02:03;;;;;;;4.30;1.90;;;;;;;7.68;100.00;94516.31;2090765;28;20461;-84
2024/04/12 00:03:04;;;;;;;2.75;1.80;;;;;;;7.79;100.00;94514.56;2098124;28;20032;-83
2024/04/12 00:04:08;;;;;;;6.20;1.90;;;;;;;7.77;100.00;94508.81;2103412;28;20453;-82
2024/04/12 00:05:09;;;;;;;4.32;1.85;;;;;;;7.77;100.00;94514.16;2090108;28;20037;-81
2024/04/12 00:06:17;;;;;;;2.70;1.77;;;;;;;7.81;100.00;94509.63;2071120;28;20022;-80
2024/04/12 00:07:18;;;;;;;4.28;1.92;;;;;;;7.69;100.00;94520.53;2082697;28;20029;-82
2024/04/12 00:08:22;;;;;;;4.40;1.77;;;;;;;7.65;100.00;94519.72;2081997;28;20026;-82
2024/04/12 00:09:23;;;;;;;3.63;1.85;;;;;;;7.54;100.00;94519.56;2080738;28;20660;-81
2024/04/12 00:10:24;;;;;;;3.08;1.58;;;;;;;7.57;100.00;94518.88;2073882;28;20053;-84
2024/04/12 00:11:25;;;;;;;3.83;1.73;;;;;;;7.75;100.00;94517.19;2085799;28;20025;-82
2024/04/12 00:12:26;;;;;;;3.13;1.70;;;;;;;7.75;100.00;94511.84;2098357;28;20021;-81
2024/04/12 00:13:31;;;;;;;3.58;1.92;;;;;;;7.81;100.00;94517.63;2097763;28;20031;-82
2024/04/12 00:14:32;;;;;;;2.78;1.80;;;;;;;7.81;100.00;94512.28;2095561;28;20048;-82
2024/04/12 00:15:34;;;;;;;6.35;1.98;;;;;;;7.81;100.00;94521.06;2090647;28;20420;-83
2024/04/12 00:16:43;;;;;;;4.70;1.60;;;;;;;7.46;100.00;94507.31;2094843;28;20384;-80
2024/04/12 00:17:44;;;;;;;4.43;1.90;;;;;;;7.46;100.00;94512.63;2096683;28;20024;-84
2024/04/12 00:18:46;;;;;;;3.70;1.98;;;;;;;7.64;100.00;94508.31;2090084;28;20040;-81
2024/04/12 00:19:46;;;;;;;5.25;1.92;;;;;;;7.76;100.00;94512.63;2087358;28;20556;-82
2024/04/12 00:20:48;;;;;;;4.95;1.98;;;;;;;7.62;100.00;94509.78;2092141;28;20076;-82
2024/04/12 00:21:55;;;;;;;4.38;1.85;;;;;;;7.66;100.00;94503.38;2081052;28;20029;-84
2024/04/12 00:22:56;;;;;;;5.35;2.00;;;;;;;7.75;100.00;94503.88;2083399;28;20029;-83
2024/04/12 00:23:59;;;;;;;5.70;2.00;;;;;;;7.78;100.00;94505.06;2081801;28;20036;-85
2024/04/12 00:25:04;;;;;;;4.53;1.98;;;;;;;7.80;100.00;94500.88;2089964;28;20044;-82
2024/04/12 00:26:11;;;;;;;4.07;2.15;;;;;;;7.97;100.00;94504.88;2097163;28;20020;-85
2024/04/12 00:27:15;;;;;;;4.93;2.35;;;;;;;8.05;100.00;94509.16;2092282;28;20077;-82
2024/04/12 00:28:16;;;;;;;4.47;2.38;;;;;;;8.03;100.00;94510.63;2103487;28;20085;-84
2024/04/12 00:29:30;;;;;;;3.10;2.00;;;;;;;8.11;100.00;94506.91;2104426;28;20464;-83
2024/04/12 00:30:41;;;;;;;7.43;2.38;;;;;;;7.80;100.00;94503.53;2089831;28;20024;-82
2024/04/12 00:31:46;;;;;;;4.20;1.98;;;;;;;7.94;100.00;94505.59;2092620;28;20422;-83
2024/04/12 00:32:56;;;;;;;4.95;1.77;;;;;;;8.06;100.00;94504.59;2098424;28;20024;-82
2024/04/12 00:34:04;;;;;;;2.97;1.90;;;;;;;7.93;100.00;94498.75;2107095;28;20546;-84
2024/04/12 00:35:11;;;;;;;5.82;1.80;;;;;;;7.93;100.00;94500.63;2113458;28;20420;-83
2024/04/12 00:36:12;;;;;;;4.30;1.80;;;;;;;7.65;100.00;94507.19;2106119;28;20049;-84
2024/04/12 00:37:17;;;;;;;4.88;1.70;;;;;;;7.68;100.00;94503.00;2098697;28;20020;-85
2024/04/12 00:38:23;;;;;;;4.13;2.20;;;;;;;7.83;100.00;94500.16;2093134;28;20029;-84
2024/04/12 00:39:35;;;;;;;3.80;1.70;;;;;;;7.81;100.00;94498.97;2090088;28;20130;-83
2024/04/12 00:40:41;;;;;;;5.00;2.10;;;;;;;7.70;100.00;94508.75;2098680;28;20338;-84
2024/04/12 00:41:42;;;;;;;2.33;1.58;;;;;;;7.85;100.00;94504.34;2094859;28;20393;-81
2024/04/12 00:42:44;;;;;;;5.07;1.88;;;;;;;7.80;100.00;94502.78;2097230;28;20027;-82
2024/04/12 00:43:51;;;;;;;5.07;2.00;;;;;;;7.84;100.00;94500.94;2098698;28;20081;-84
2024/04/12 00:44:54;;;;;;;1.80;1.63;;;;;;;7.75;100.00;94505.78;2101522;28;20077;-82
2024/04/12 00:45:56;;;;;;;4.60;1.80;;;;;;;7.63;100.00;94504.09;2106619;28;20020;-82
2024/04/12 00:47:00;;;;;;;5.10;2.05;;;;;;;7.65;100.00;94511.75;2105899;28;20032;-81
2024/04/12 00:48:07;;;;;;;2.90;1.80;;;;;;;7.78;100.00;94505.06;2087677;28;20025;-84
2024/04/12 00:49:08;;;;;;;3.58;1.80;;;;;;;7.89;99.42;94505.16;2083658;28;20276;-84
2024/04/12 00:50:15;;;;;;;3.78;1.80;;;;;;;7.95;97.76;94507.16;2095595;28;20097;-82
2024/04/12 00:51:17;;;;;;;5.22;1.98;;;;;;;7.90;96.79;94506.69;2100608;28;20020;-83
2024/04/12 00:52:22;;;;;;;3.08;2.10;;;;;;;7.92;98.00;94505.19;2098110;28;20421;-83
2024/04/12 00:53:28;;;;;;;3.80;1.90;;;;;;;7.71;100.00;94505.72;2093689;28;20103;-81
2024/04/12 00:54:32;;;;;;;2.38;1.73;;;;;;;7.85;100.00;94512.34;2101773;28;20044;-83
2024/04/12 00:55:35;;;;;;;3.92;2.10;;;;;;;7.84;100.00;94508.91;2106588;28;20060;-83
2024/04/12 00:56:38;;;;;;;3.95;1.90;;;;;;;7.78;100.00;94505.06;2095198;28;20021;-83
2024/04/12 00:57:40;;;;;;;3.30;2.20;;;;;;;7.76;100.00;94502.72;2097469;28;20021;-82
2024/04/12 00:58:43;;;;;;;4.20;2.03;;;;;;;7.61;100.00;94505.59;2083542;28;20025;-81
2024/04/12 00:59:44;;;;;;;5.20;2.25;;;;;;;7.55;100.00;94511.25;2087914;28;20099;-84
2024/04/12 01:00:47;;;;;;;5.80;1.75;;;;;;;7.55;100.00;94507.81;2097844;28;20024;-82
2024/04/12 01:01:48;;;;;;;2.65;1.75;;;;;;;7.74;100.00;94513.00;2093222;28;20028;-82
2024/04/12 01:02:49;;;;;;;5.28;2.05;;;;;;;7.83;98.20;94508.16;2097931;28;20099;-84
2024/04/12 01:03:53;;;;;;;3.10;2.10;;;;;;;7.83;98.49;94508.16;2104307;28;20031;-80
2024/04/12 01:04:54;;;;;;;4.07;2.15;;;;;;;7.82;98.08;94501.31;2107097;28;20061;-81
2024/04/12 01:05:55;;;;;;;3.05;2.00;;;;;;;7.79;99.79;94495.94;2098026;28;20039;-82
2024/04/12 01:06:58;;;;;;;4.40;2.35;;;;;;;7.84;99.24;94498.25;2097192;28;20099;-82
2024/04/12 01:08:00;;;;;;;5.35;2.30;;;;;;;7.83;99.14;94489.50;2081816;28;20029;-82
2024/04/12 01:09:11;;;;;;;3.42;1.95;;;;;;;7.54;100.00;94490.31;2089937;28;20043;-83
2024/04/12 01:10:30;;;;;;;3.03;1.80;;;;;;;7.57;100.00;94493.03;2094845;28;20111;-84
2024/04/12 01:11:31;;;;;;;3.75;1.90;;;;;;;7.69;99.51;94499.25;2098001;28;20075;-82
2024/04/12 01:12:33;;;;;;;3.28;1.77;;;;;;;7.74;99.55;94491.69;2105761;28;20027;-80
2024/04/12 01:13:36;;;;;;;4.28;2.10;;;;;;;7.82;98.43;94490.66;2106445;28;20360;-81
2024/04/12 01:14:36;;;;;;;2.63;2.10;;;;;;;7.72;100.00;94491.28;2105972;28;20020;-81
2024/04/12 01:15:47;;;;;;;2.55;1.65;;;;;;;7.82;100.00;94492.56;2105387;28;20068;-81
2024/04/12 01:16:54;;;;;;;3.05;1.75;;;;;;;7.79;99.79;94486.03;2105272;28;20050;-83
2024/04/12 01:17:56;;;;;;;5.13;2.00;;;;;;;7.99;97.14;94488.53;2098594;28;20027;-82
2024/04/12 01:18:58;;;;;;;3.85;1.92;;;;;;;8.09;96.25;94487.88;2106764;28;20034;-84
2024/04/12 01:19:59;;;;;;;4.15;1.95;;;;;;;8.14;94.46;94487.53;2113145;28;20016;-81
2024/04/12 01:21:01;;;;;;;2.78;1.80;;;;;;;8.13;96.27;94487.91;2097853;28;20067;-83
2024/04/12 01:22:05;;;;;;;5.32;1.73;;;;;;;8.10;95.77;94488.66;2090153;28;20024;-84
2024/04/12 01:23:07;;;;;;;3.20;1.77;;;;;;;8.28;94.72;94485.00;2106447;28;20484;-82
2024/04/12 01:24:09;;;;;;;2.35;1.63;;;;;;;8.11;95.06;94487.50;2091228;28;20037;-82
2024/04/12 01:25:09;;;;;;;4.10;2.05;;;;;;;8.19;93.84;94489.13;2099534;28;20032;-81
2024/04/12 01:26:12;;;;;;;3.28;1.80;;;;;;;8.12;94.05;94481.84;2111573;28;20464;-84
2024/04/12 01:27:14;;;;;;;4.97;2.28;;;;;;;8.21;93.80;94481.50;2092298;28;20060;-84
2024/04/12 01:28:16;;;;;;;2.85;1.95;;;;;;;8.20;94.92;94485.31;2081154;28;20033;-82
2024/04/12 01:29:19;;;;;;;4.30;1.98;;;;;;;8.28;94.25;94477.03;2083872;28;20022;-84
2024/04/12 01:30:20;;;;;;;5.25;1.77;;;;;;;8.12;94.31;94483.72;2092253;28;20025;-80
2024/04/12 01:31:21;;;;;;;3.45;1.75;;;;;;;8.07;93.98;94479.47;2089470;28;20387;-83
2024/04/12 01:32:24;;;;;;;3.38;2.03;;;;;;;8.07;93.84;94479.47;2099512;28;20393;-82
2024/04/12 01:33:25;;;;;;;4.97;2.22;;;;;;;7.85;96.38;94481.16;2100751;28;20262;-82
2024/04/12 01:34:29;;;;;;;3.15;2.10;;;;;;;7.86;95.82;94482.72;2099289;28;20810;-83
2024/04/12 01:35:33;;;;;;;2.95;1.73;;;;;;;8.03;95.58;94479.47;2097357;28;20098;-85
2024/04/12 01:36:47;;;;;;;3.42;2.08;;;;;;;7.97;94.62;94482.81;2093629;28;20028;-81
2024/04/12 01:37:52;;;;;;;3.80;1.95;;;;;;;7.89;97.31;94481.97;2082739;28;20036;-79
2024/04/12 01:38:53;;;;;;;3.53;1.90;;;;;;;8.10;94.16;94475.34;2085402;28;20470;-82
2024/04/12 01:39:54;;;;;;;2.10;1.90;;;;;;;8.12;93.80;94491.69;2095020;28;20492;-81
2024/04/12 01:41:04;;;;;;;2.97;1.90;;;;;;;7.88;95.08;94485.00;2089107;28;20025;-82
2024/04/12 01:42:13;;;;;;;3.90;2.10;;;;;;;7.97;94.86;94486.22;2094620;28;20024;-83
2024/04/12 01:43:14;;;;;;;4.38;1.92;;;;;;;8.10;92.63;94480.66;2083691;28;20026;-81
2024/04/12 01:44:24;;;;;;;7.07;2.00;;;;;;;8.33;90.47;94481.25;2081899;28;20033;-80
2024/04/12 01:45:26;;;;;;;4.45;2.22;;;;;;;8.33;90.11;94478.59;2088468;28;20029;-80
2024/04/12 01:46:27;;;;;;;2.50;1.67;;;;;;;8.30;90.67;94485.44;2073180;28;20030;-80
2024/04/12 01:47:34;;;;;;;3.72;2.03;;;;;;;8.45;90.73;94486.34;2077477;28;20032;-82
2024/04/12 01:48:36;;;;;;;3.33;2.10;;;;;;;8.50;90.16;94485.22;2088787;28;20524;-80
2024/04/12 01:49:43;;;;;;;2.55;1.73;;;;;;;8.65;88.92;94475.44;2089314;28;20729;-82
2024/04/12 01:50:46;;;;;;;3.53;1.77;;;;;;;8.66;87.85;94485.00;2085752;28;20025;-83
2024/04/12 01:51:48;;;;;;;4.03;2.20;;;;;;;8.40;88.63;94481.34;2097716;28;20103;-82
2024/04/12 01:52:53;;;;;;;2.97;1.58;;;;;;;8.35;89.72;94486.22;2093101;28;20024;-82
2024/04/12 01:53:55;;;;;;;4.38;1.83;;;;;;;8.28;89.91;94490.34;2096940;28;20035;-79
2024/04/12 01:55:05;;;;;;;3.58;2.25;;;;;;;8.30;89.30;94484.66;2089721;28;20053;-80
2024/04/12 01:56:10;;;;;;;;;;;;;;;8.38;89.18;94483.59;2080772;28;20116;-83
2024/04/12 01:57:11;;;;;;;4.32;1.92;;;;;;;8.24;88.73;94486.13;2083854;28;19920;-82
2024/04/12 01:58:12;;;;;;;5.13;2.20;;;;;;;8.39;88.39;94481.72;2089011;28;20485;-82
2024/04/12 01:59:21;;;;;;;7.13;1.88;;;;;;;8.46;87.44;94481.75;2079188;28;20061;-84
2024/04/12 02:00:24;;;;;;;4.22;2.10;;;;;;;8.47;87.64;94484.09;2095289;28;20039;-81
2024/04/12 02:01:27;;;;;;;2.33;1.75;;;;;;;8.30;90.57;94480.09;2103192;28;20863;-81
2024/04/12 02:02:30;;;;;;;5.03;1.70;;;;;;;8.23;89.38;94487.25;2094691;28;20059;-85
2024/04/12 02:03:31;;;;;;;5.78;2.05;;;;;;;8.28;89.74;94478.91;2088955;28;20024;-82
2024/04/12 02:04:34;;;;;;;4.72;1.90;;;;;;;8.26;88.68;94476.63;2096826;28;20142;-81
2024/04/12 02:05:37;;;;;;;2.28;1.67;;;;;;;8.38;87.32;94485.50;2082936;28;20050;-80
2024/04/12 02:06:42;;;;;;;5.93;2.08;;;;;;;8.48;86.92;94484.84;2089049;28;20136;-83
2024/04/12 02:07:55;;;;;;;3.00;2.10;;;;;;;8.50;85.55;94479.91;2096502;28;20048;-84
2024/04/12 02:08:57;;;;;;;2.80;1.75;;;;;;;8.29;88.75;94488.44;2098544;28;20031;-82
2024/04/12 02:10:07;;;;;;;3.67;1.80;;;;;;;8.33;88.03;94484.66;2088955;28;20025;-82
2024/04/12 02:11:09;;;;;;;;;;;;;;;8.33;87.95;94489.25;2088814;28;20033;-84
2024/04/12 02:12:10;;;;;;;2.80;1.73;;;;;;;8.43;87.74;94483.28;2089613;28;19913;-81
2024/04/12 02:13:22;;;;;;;3.67;1.77;;;;;;;8.63;85.93;94483.81;2072825;28;20029;-81
2024/04/12 02:14:23;;;;;;;;;;;;;;;8.67;84.71;94481.94;2082068;28;20033;-84
2024/04/12 02:15:25;;;;;;;5.32;1.90;;;;;;;8.56;84.61;94483.78;2101944;28;19912;-82
2024/04/12 02:16:27;;;;;;;2.20;2.00;;;;;;;8.65;84.28;94481.56;2088889;28;20445;-84
2024/04/12 02:17:30;;;;;;;4.80;2.10;;;;;;;8.52;84.89;94478.41;2088333;28;20029;-82
2024/04/12 02:18:33;;;;;;;3.67;1.77;;;;;;;8.58;84.29;94484.91;2092610;28;20028;-82
2024/04/12 02:19:36;;;;;;;3.45;1.63;;;;;;;8.70;83.21;94483.13;2090230;28;20017;-80
2024/04/12 02:20:37;;;;;;;2.35;2.03;;;;;;;8.55;83.83;94488.31;2091623;28;20021;-83
2024/04/12 02:21:39;;;;;;;7.07;2.25;;;;;;;8.62;83.32;94489.53;2073957;28;20045;-83
2024/04/12 02:22:40;;;;;;;4.50;2.17;;;;;;;8.57;85.04;94488.72;2091857;28;20070;-80
2024/04/12 02:23:43;;;;;;;4.07;2.20;;;;;;;8.57;85.73;94491.38;2096169;28;20082;-80
2024/04/12 02:24:44;;;;;;;4.72;2.22;;;;;;;8.47;85.36;94486.75;2089246;28;20430;-81
2024/04/12 02:27:46;;;;;;;;;;;;;;;5.76;100.00;94494.41;2141620;27;20118;-81
2024/04/12 02:28:48;;;;;;;6.18;2.08;;;;;;;5.82;100.00;94494.88;2120739;28;19919;-81
2024/04/12 02:29:49;;;;;;;5.82;2.17;;;;;;;5.83;100.00;94493.75;2112788;28;20044;-85
2024/04/12 02:31:01;;;;;;;5.25;2.13;;;;;;;5.80;100.00;94489.16;2106188;28;20032;-81
2024/04/12 02:32:02;;;;;;;4.13;1.80;;;;;;;5.73;100.00;94502.28;2113335;28;20047;-82
2024/04/12 02:33:05;;;;;;;4.47;2.10;;;;;;;5.49;100.00;94490.84;2121300;27;20086;-83
2024/04/12 02:34:07;;;;;;;3.38;1.80;;;;;;;5.29;100.00;94497.25;2138325;27;20089;-82
2024/04/12 02:35:08;;;;;;;5.72;2.30;;;;;;;5.52;100.00;94499.97;2121065;28;20372;-85
2024/04/12 02:36:14;;;;;;;3.75;2.30;;;;;;;5.56;100.00;94493.63;2113306;28;20566;-83
2024/04/12 02:37:15;;;;;;;6.60;2.10;;;;;;;5.44;100.00;94499.06;2104454;28;20781;-80
2024/04/12 02:38:21;;;;;;;5.05;2.50;;;;;;;5.36;100.00;94505.38;2112707;27;20058;-79
2024/04/12 02:39:23;;;;;;;2.05;1.67;;;;;;;5.70;100.00;94497.69;2117706;28;20032;-82
2024/04/12 02:40:25;;;;;;;3.78;2.50;;;;;;;5.36;100.00;94501.94;2096355;28;20029;-82
2024/04/12 02:41:37;;;;;;;5.57;2.13;;;;;;;5.62;100.00;94491.50;2104519;28;20041;-82
2024/04/12 02:42:39;;;;;;;4.40;2.15;;;;;;;5.53;100.00;94493.56;2113814;28;20077;-84
2024/04/12 02:43:45;;;;;;;4.13;2.10;;;;;;;5.79;100.00;94498.22;2110702;28;20082;-80
2024/04/12 02:44:46;;;;;;;5.95;2.15;;;;;;;5.22;100.00;94486.50;2108534;28;20021;-82
2024/04/12 02:45:57;;;;;;;4.20;2.00;;;;;;;5.10;100.00;94486.63;2111262;28;20555;-81
2024/04/12 02:46:58;;;;;;;4.85;2.20;;;;;;;5.05;100.00;94500.94;2122614;27;20042;-83
2024/04/12 02:47:59;;;;;;;2.72;2.10;;;;;;;5.05;100.00;94496.41;2130174;27;20099;-83
2024/04/12 02:49:04;;;;;;;5.40;2.42;;;;;;;4.97;100.00;94502.66;2116002;28;20019;-82
2024/04/12 02:50:09;;;;;;;3.92;2.20;;;;;;;5.21;100.00;94495.56;2112501;28;20091;-84
2024/04/12 02:51:13;;;;;;;3.38;2.30;;;;;;;5.14;100.00;94496.19;2103012;28;20103;-83
2024/04/12 02:52:15;;;;;;;3.05;2.13;;;;;;;5.06;100.00;94499.81;2112819;27;20097;-84
2024/04/12 02:53:19;;;;;;;4.07;2.17;;;;;;;5.00;100.00;94499.31;2112404;28;20465;-83
2024/04/12 02:54:20;;;;;;;3.40;1.85;;;;;;;5.07;100.00;94505.88;2112224;28;20163;-83
2024/04/12 02:55:21;;;;;;;5.70;2.30;;;;;;;5.08;100.00;94502.88;2111825;28;20143;-82
2024/04/12 02:56:24;;;;;;;4.18;2.25;;;;;;;5.21;100.00;94498.22;2112653;27;20512;-81
2024/04/12 02:57:28;;;;;;;3.25;1.95;;;;;;;5.24;100.00;94502.84;2111923;28;20481;-84
2024/04/12 02:58:39;;;;;;;5.25;2.38;;;;;;;5.20;100.00;94499.34;2104870;28;20118;-82
2024/04/12 02:59:41;;;;;;;3.75;2.00;;;;;;;5.42;100.00;94498.66;2113116;28;20062;-84
2024/04/12 03:00:44;;;;;;;5.30;2.15;;;;;;;5.02;100.00;94505.03;2120726;27;20071;-84
2024/04/12 03:01:46;;;;;;;6.07;2.13;;;;;;;5.11;100.00;94512.03;2120862;28;20507;-81
2024/04/12 03:02:51;;;;;;;2.53;1.90;;;;;;;4.86;100.00;94506.94;2120535;27;20099;-84
2024/04/12 03:03:58;;;;;;;3.15;2.08;;;;;;;4.59;100.00;94510.47;2120501;28;20549;-81
2024/04/12 03:05:00;;;;;;;4.50;2.72;;;;;;;4.69;100.00;94507.28;2113188;28;20065;-84
2024/04/12 03:06:02;;;;;;;5.13;1.95;;;;;;;4.55;100.00;94508.50;2112100;28;20484;-84
2024/04/12 03:07:09;;;;;;;3.88;2.30;;;;;;;4.50;100.00;94506.13;2103557;28;20410;-83
2024/04/12 03:08:17;;;;;;;2.42;2.22;;;;;;;4.42;100.00;94512.34;2118247;27;20027;-83
2024/04/12 03:09:18;;;;;;;5.03;2.42;;;;;;;4.25;100.00;94512.69;2111846;28;20098;-81
2024/04/12 03:10:20;;;;;;;4.22;2.38;;;;;;;4.31;100.00;94513.97;2112326;28;20702;-81
2024/04/12 03:11:33;;;;;;;3.10;1.85;;;;;;;4.31;100.00;94510.56;2113436;28;20027;-81
2024/04/12 03:12:36;;;;;;;5.07;2.20;;;;;;;4.44;100.00;94509.38;2101160;28;20024;-84
2024/04/12 03:13:36;;;;;;;4.28;2.10;;;;;;;4.47;100.00;94509.44;2103694;28;20028;-84
2024/04/12 03:14:38;;;;;;;2.78;2.25;;;;;;;4.50;100.00;94505.34;2119295;28;20026;-82
2024/04/12 03:15:40;;;;;;;3.85;1.77;;;;;;;4.42;100.00;94504.41;2111734;28;20024;-83
2024/04/12 03:16:43;;;;;;;4.95;2.33;;;;;;;4.26;100.00;94506.31;2112541;28;20019;-84
2024/04/12 03:17:46;;;;;;;4.47;2.30;;;;;;;4.31;100.00;94507.94;2095999;28;20031;-81
2024/04/12 03:18:52;;;;;;;2.83;1.88;;;;;;;4.40;100.00;94511.94;2096382;28;20021;-80
2024/04/12 03:19:54;;;;;;;3.85;2.10;;;;;;;4.33;100.00;94511.75;2096766;28;20029;-83
2024/04/12 03:20:55;;;;;;;6.57;2.20;;;;;;;4.23;100.00;94510.38;2112052;28;20052;-82
2024/04/12 03:21:56;;;;;;;4.25;2.10;;;;;;;4.29;100.00;94505.59;2112330;28;20039;-81
2024/04/12 03:22:56;;;;;;;4.93;2.70;;;;;;;4.33;100.00;94509.09;2117929;28;20031;-83
2024/04/12 03:23:57;;;;;;;2.10;1.90;;;;;;;4.43;100.00;94513.88;2103418;28;20485;-81
2024/04/12 03:24:58;;;;;;;4.57;2.53;;;;;;;4.40;100.00;94513.81;2103872;28;20031;-81
2024/04/12 03:26:01;;;;;;;5.00;2.20;;;;;;;4.24;100.00;94511.91;2107554;28;20031;-81
2024/04/12 03:27:04;;;;;;;5.78;2.30;;;;;;;4.29;100.00;94518.84;2112470;28;20099;-81
2024/04/12 03:28:05;;;;;;;5.47;2.35;;;;;;;4.32;100.00;94514.75;2120500;27;20019;-84
2024/04/12 03:29:06;;;;;;;3.85;2.53;;;;;;;4.31;100.00;94516.63;2129403;27;20027;-85
2024/04/12 03:30:14;;;;;;;3.13;2.40;;;;;;;4.40;100.00;94516.47;2120630;28;20020;-84
2024/04/12 03:31:17;;;;;;;5.45;2.10;;;;;;;4.47;100.00;94514.72;2121165;27;20051;-82
2024/04/12 03:32:20;;;;;;;4.45;2.53;;;;;;;4.39;100.00;94510.41;2120787;28;20443;-83
2024/04/12 03:33:21;;;;;;;3.53;1.98;;;;;;;4.24;100.00;94509.28;2103391;28;20039;-81
2024/04/12 03:34:24;;;;;;;4.20;2.20;;;;;;;4.30;100.00;94512.44;2112785;27;20027;-82
2024/04/12 03:35:25;;;;;;;6.03;2.30;;;;;;;4.26;100.00;94506.31;2129456;27;20027;-84
2024/04/12 03:37:38;;;;;;;4.30;2.30;;;;;;;4.24;100.00;94513.81;2119881;28;20115;-81
2024/04/12 03:38:39;;;;;;;;;;;;;;;4.40;100.00;94513.81;2111134;28;20567;-83
2024/04/12 03:39:40;;;;;;;5.00;2.22;;;;;;;4.47;100.00;94512.09;2114650;28;19915;-83
2024/04/12 03:40:45;;;;;;;4.47;2.30;;;;;;;4.45;100.00;94508.25;2106436;28;20438;-81
2024/04/12 03:41:58;;;;;;;5.07;2.40;;;;;;;4.53;100.00;94504.69;2098742;28;20060;-80
2024/04/12 03:43:02;;;;;;;3.17;2.40;;;;;;;4.25;100.00;94510.03;2107762;28;20024;-84
2024/04/12 03:44:08;;;;;;;4.78;2.72;;;;;;;4.28;100.00;94501.44;2106816;28;20032;-81
2024/04/12 03:45:15;;;;;;;2.95;2.45;;;;;;;4.20;100.00;94508.41;2109650;28;20036;-84
2024/04/12 03:46:16;;;;;;;5.07;2.28;;;;;;;4.19;100.00;94508.75;2109414;28;20072;-82
2024/04/12 03:47:18;;;;;;;4.35;2.60;;;;;;;4.09;100.00;94502.09;2104364;28;20016;-82
2024/04/12 03:48:19;;;;;;;3.47;2.35;;;;;;;4.08;100.00;94497.91;2113033;28;20050;-83
2024/04/12 03:49:21;;;;;;;3.42;2.28;;;;;;;4.17;100.00;94508.31;2114379;28;20027;-82
2024/04/12 03:50:22;;;;;;;3.80;2.25;;;;;;;4.13;100.00;94505.59;2106274;28;20028;-81
2024/04/12 03:51:24;;;;;;;6.38;2.67;;;;;;;4.23;100.00;94506.97;2095298;28;20036;-83
2024/04/12 03:52:26;;;;;;;7.60;2.50;;;;;;;4.38;100.00;94503.56;2098430;28;20024;-84
2024/04/12 03:53:30;;;;;;;6.78;2.55;;;;;;;4.27;100.00;94505.19;2102569;28;20077;-81
2024/04/12 03:54:31;;;;;;;3.53;1.90;;;;;;;4.08;100.00;94513.00;2104958;28;20020;-82
2024/04/12 03:55:32;;;;;;;7.53;2.58;;;;;;;4.01;100.00;94509.09;2106445;28;20094;-83
2024/04/12 03:56:36;;;;;;;6.07;2.30;;;;;;;4.07;100.00;94508.81;2097665;28;20036;-84
2024/04/12 03:57:38;;;;;;;4.70;2.13;;;;;;;4.16;100.00;94512.84;2098117;28;20025;-82
2024/04/12 03:58:41;;;;;;;3.03;2.38;;;;;;;4.10;100.00;94505.50;2098321;28;20107;-82
2024/04/12 03:59:43;;;;;;;3.53;2.38;;;;;;;4.13;100.00;94510.91;2105995;28;20028;-81
2024/04/12 04:00:45;;;;;;;5.25;2.60;;;;;;;4.07;100.00;94508.81;2098202;28;20052;-81
2024/04/12 04:01:47;;;;;;;4.82;2.50;;;;;;;3.84;100.00;94508.63;2097747;28;20176;-80
2024/04/12 04:02:51;;;;;;;5.53;2.05;;;;;;;3.90;100.00;94501.97;2098369;28;20378;-83
2024/04/12 04:03:57;;;;;;;5.25;2.17;;;;;;;3.81;100.00;94507.41;2103725;28;20028;-82
2024/04/12 04:05:13;;;;;;;4.63;2.13;;;;;;;3.76;100.00;94512.94;2112044;27;20023;-82
2024/04/12 04:06:14;;;;;;;5.60;2.47;;;;;;;3.88;100.00;94504.97;2113945;28;20448;-81
2024/04/12 04:07:16;;;;;;;3.40;2.13;;;;;;;3.87;100.00;94505.31;2106240;28;20095;-84
2024/04/12 04:08:19;;;;;;;4.72;2.30;;;;;;;4.02;100.00;94499.25;2099402;28;20028;-81
2024/04/12 04:09:25;;;;;;;3.90;2.35;;;;;;;4.08;100.00;94497.91;2097323;28;20469;-84
2024/04/12 04:10:30;;;;;;;4.20;2.28;;;;;;;4.01;100.00;94500.38;2105923;28;20028;-81
2024/04/12 04:11:31;;;;;;;6.45;2.55;;;;;;;4.02;100.00;94494.75;2105671;28;20115;-80
2024/04/12 04:12:33;;;;;;;4.70;2.30;;;;;;;4.06;100.00;94497.47;2108199;28;20105;-83
2024/04/12 04:13:47;;;;;;;5.55;2.75;;;;;;;4.08;100.00;94491.84;2112129;28;20024;-84
2024/04/12 04:14:48;;;;;;;2.70;2.20;;;;;;;4.08;100.00;94492.59;2105500;28;20020;-84
2024/04/12 04:15:50;;;;;;;7.88;2.30;;;;;;;3.99;100.00;94492.00;2105928;28;20020;-83
2024/04/12 04:17:00;;;;;;;3.75;2.60;;;;;;;4.02;100.00;94492.09;2105701;28;20376;-84
2024/04/12 04:18:02;;;;;;;6.35;2.70;;;;;;;4.08;100.00;94489.19;2107070;28;20073;-84
2024/04/12 04:19:03;;;;;;;5.13;2.22;;;;;;;4.22;100.00;94489.56;2102246;28;20170;-81
2024/04/12 04:20:07;;;;;;;4.30;2.30;;;;;;;4.10;100.00;94487.75;2112770;27;20019;-82
2024/04/12 04:21:08;;;;;;;4.70;2.58;;;;;;;4.07;100.00;94491.06;2105343;28;20159;-82
2024/04/12 04:22:23;;;;;;;4.07;2.67;;;;;;;4.02;100.00;94497.38;2102259;28;20132;-84
2024/04/12 04:23:24;;;;;;;5.82;2.65;;;;;;;3.95;100.00;94497.22;2114744;27;20035;-81
2024/04/12 04:24:26;;;;;;;5.20;3.00;;;;;;;4.02;100.00;94493.97;2122521;27;20031;-82
2024/04/12 04:25:27;;;;;;;6.45;2.67;;;;;;;4.17;100.00;94495.09;2114541;28;20059;-81
2024/04/12 04:26:28;;;;;;;5.35;3.20;;;;;;;4.24;100.00;94492.63;2110350;28;20027;-81
2024/04/12 04:27:30;;;;;;;5.53;2.60;;;;;;;4.27;100.00;94494.59;2118337;27;20031;-84
2024/04/12 04:28:31;;;;;;;6.85;2.92;;;;;;;4.23;100.00;94496.38;2114047;28;20020;-81
2024/04/12 04:29:35;;;;;;;5.07;3.22;;;;;;;4.19;100.00;94490.25;2093949;28;20040;-80
2024/04/12 04:30:38;;;;;;;4.97;4.03;;;;;;;4.23;100.00;94496.38;2093597;28;20021;-83
2024/04/12 04:31:47;;;;;;;5.45;3.75;;;;;;;4.25;100.00;94488.88;2101540;28;20028;-81
2024/04/12 04:32:49;;;;;;;9.30;3.30;;;;;;;4.17;100.00;94495.88;2100527;28;20048;-82
2024/04/12 04:33:50;;;;;;;6.55;3.10;;;;;;;4.17;100.00;94487.16;2103422;28;20016;-81
2024/04/12 04:34:55;;;;;;;4.35;3.40;;;;;;;4.25;100.00;94486.97;2108470;28;20027;-82
2024/04/12 04:35:56;;;;;;;5.97;3.20;;;;;;;4.28;100.00;94486.31;2114106;28;20089;-83
2024/04/12 04:36:57;;;;;;;8.10;4.53;;;;;;;4.16;100.00;94490.91;2104654;28;20028;-81
2024/04/12 04:37:58;;;;;;;11.60;6.35;;;;;;;4.29;100.00;94487.06;2113731;28;20167;-85
2024/04/12 04:38:59;;;;;;;13.40;8.25;;;;;;;4.33;100.00;94490.56;2114378;28;20050;-83
2024/04/12 04:40:02;;;;;;;10.57;6.47;;;;;;;4.21;100.00;94493.28;2104916;28;20028;-82
2024/04/12 04:41:06;;;;;;;12.80;6.40;;;;;;;4.04;100.00;94492.53;2095513;28;20032;-82
2024/04/12 04:42:13;;;;;;;13.50;7.63;;;;;;;4.17;100.00;94490.59;2105691;28;20473;-84
2024/04/12 04:43:17;;;;;;;13.25;8.48;;;;;;;4.33;100.00;94481.88;2088889;28;20025;-81
2024/04/12 04:44:18;;;;;;;10.95;5.07;;;;;;;4.27;100.00;94492.72;2105983;27;20845;-83
2024/04/12 04:45:21;;;;;;;11.77;5.68;;;;;;;4.34;100.00;94483.41;2113712;28;20047;-83
2024/04/12 04:46:28;;;;;;;8.95;4.82;;;;;;;4.36;100.00;94492.56;2111747;27;20094;-84
2024/04/12 04:47:30;;;;;;;8.20;4.85;;;;;;;4.41;100.00;94492.28;2111710;28;20497;-85
2024/04/12 04:48:34;;;;;;;7.80;4.40;;;;;;;4.45;100.00;94487.09;2105306;28;20028;-85
2024/04/12 04:49:34;;;;;;;10.80;4.93;;;;;;;4.39;100.00;94488.44;2113735;27;20051;-83
2024/04/12 04:50:36;;;;;;;10.85;4.40;;;;;;;4.55;100.00;94487.31;2104607;28;20016;-84
2024/04/12 04:51:39;;;;;;;7.22;3.33;;;;;;;4.64;100.00;94484.50;2104898;28;20016;-86
2024/04/12 04:52:40;;;;;;;11.00;4.13;;;;;;;4.65;100.00;94475.44;2114112;28;20023;-84
2024/04/12 04:53:41;;;;;;;8.95;4.50;;;;;;;4.69;100.00;94486.88;2096700;28;20036;-80
2024/04/12 04:54:48;;;;;;;8.82;3.85;;;;;;;4.67;100.00;94475.88;2096525;28;20112;-83
2024/04/12 04:55:49;;;;;;;7.18;4.30;;;;;;;4.45;100.00;94477.25;2107181;28;20031;-85
2024/04/12 04:56:51;;;;;;;7.05;3.35;;;;;;;4.55;100.00;94483.91;2105022;28;20446;-83
2024/04/12 04:57:54;;;;;;;8.88;3.78;;;;;;;4.61;100.00;94485.19;2104082;28;20019;-84
2024/04/12 04:58:56;;;;;;;9.00;4.00;;;;;;;4.34;100.00;94483.41;2105353;28;20055;-82
2024/04/12 05:00:05;;;;;;;5.05;3.60;;;;;;;4.48;100.00;94487.16;2106254;28;20574;-84
2024/04/12 05:01:06;;;;;;;5.35;3.47;;;;;;;4.47;100.00;94498.09;2098805;28;20062;-82
2024/04/12 05:02:07;;;;;;;8.00;3.40;;;;;;;4.45;100.00;94495.78;2104463;28;20088;-84
2024/04/12 05:03:08;;;;;;;7.22;3.45;;;;;;;4.62;100.00;94485.97;2111320;28;20032;-81
2024/04/12 05:04:15;;;;;;;6.72;3.47;;;;;;;4.72;100.00;94493.38;2112555;28;20028;-84